sensor_id;sensor_type;location;lat;lon;timestamp;temperature;humidity
47336;DHT22;33068;51.990;5.926;2024-02-21T00:00:29;9.20;99.90
47336;DHT22;33068;51.990;5.926;2024-02-21T00:03:08;9.20;99.90
47336;DHT22;33068;51.990;5.926;2024-02-21T00:08:52;9.20;99.90
47336;DHT22;33068;51.990;5.926;2024-02-21T00:11:36;9.40;99.90
47336;DHT22;33068;51.990;5.926;2024-02-21T00:14:20;9.20;99.90
47336;DHT22;33068;51.990;5.926;2024-02-21T00:17:20;9.20;99.90
47336;DHT22;33068;51.990;5.926;2024-02-21T00:20:30;9.20;99.90
47336;DHT22;33068;51.990;5.926;2024-02-21T00:23:18;9.20;99.90
47336;DHT22;33068;51.990;5.926;2024-02-21T00:26:03;9.20;99.90
47336;DHT22;33068;51.990;5.926;2024-02-21T00:28:50;9.20;99.90
47336;DHT22;33068;51.990;5.926;2024-02-21T00:31:27;9.20;99.90
47336;DHT22;33068;51.990;5.926;2024-02-21T00:34:18;9.10;99.90
47336;DHT22;33068;51.990;5.926;2024-02-21T00:37:19;9.20;99.90
47336;DHT22;33068;51.990;5.926;2024-02-21T00:40:07;9.20;99.90
47336;DHT22;33068;51.990;5.926;2024-02-21T00:42:47;9.20;99.90
47336;DHT22;33068;51.990;5.926;2024-02-21T00:45:26;9.20;99.90
47336;DHT22;33068;51.990;5.926;2024-02-21T00:48:28;9.10;99.90
47336;DHT22;33068;51.990;5.926;2024-02-21T00:51:18;9.20;99.90
47336;DHT22;33068;51.990;5.926;2024-02-21T00:53:51;9.10;99.90
47336;DHT22;33068;51.990;5.926;2024-02-21T01:00:22;9.10;99.90
47336;DHT22;33068;51.990;5.926;2024-02-21T01:03:13;9.10;99.90
47336;DHT22;33068;51.990;5.926;2024-02-21T01:06:00;9.10;99.90
47336;DHT22;33068;51.990;5.926;2024-02-21T01:08:40;9.10;99.90
47336;DHT22;33068;51.990;5.926;2024-02-21T01:11:16;9.10;99.90
47336;DHT22;33068;51.990;5.926;2024-02-21T01:14:02;9.10;99.90
47336;DHT22;33068;51.990;5.926;2024-02-21T01:16:53;9.20;99.90
47336;DHT22;33068;51.990;5.926;2024-02-21T01:20:11;9.20;99.90
47336;DHT22;33068;51.990;5.926;2024-02-21T01:23:26;9.10;99.90
47336;DHT22;33068;51.990;5.926;2024-02-21T01:30:02;9.20;99.90
47336;DHT22;33068;51.990;5.926;2024-02-21T01:35:55;9.20;99.90
47336;DHT22;33068;51.990;5.926;2024-02-21T01:38:43;9.20;99.90
47336;DHT22;33068;51.990;5.926;2024-02-21T01:42:11;9.30;99.90
47336;DHT22;33068;51.990;5.926;2024-02-21T01:44:36;9.10;99.90
47336;DHT22;33068;51.990;5.926;2024-02-21T01:47:22;9.10;99.90
47336;DHT22;33068;51.990;5.926;2024-02-21T01:49:58;9.10;99.90
47336;DHT22;33068;51.990;5.926;2024-02-21T01:52:37;9.10;99.90
47336;DHT22;33068;51.990;5.926;2024-02-21T01:55:22;9.10;99.90
47336;DHT22;33068;51.990;5.926;2024-02-21T01:58:00;9.10;99.90
47336;DHT22;33068;51.990;5.926;2024-02-21T02:01:03;9.00;99.90
47336;DHT22;33068;51.990;5.926;2024-02-21T02:03:36;9.10;99.90
47336;DHT22;33068;51.990;5.926;2024-02-21T02:06:26;9.10;99.90
47336;DHT22;33068;51.990;5.926;2024-02-21T02:09:23;9.10;99.90
47336;DHT22;33068;51.990;5.926;2024-02-21T02:12:08;9.10;99.90
47336;DHT22;33068;51.990;5.926;2024-02-21T02:15:00;9.10;99.90
47336;DHT22;33068;51.990;5.926;2024-02-21T02:17:40;9.10;99.90
47336;DHT22;33068;51.990;5.926;2024-02-21T02:20:35;9.10;99.90
47336;DHT22;33068;51.990;5.926;2024-02-21T02:23:24;9.10;99.90
47336;DHT22;33068;51.990;5.926;2024-02-21T02:26:12;9.10;99.90
47336;DHT22;33068;51.990;5.926;2024-02-21T02:28:46;9.10;99.90
47336;DHT22;33068;51.990;5.926;2024-02-21T02:31:21;8.80;99.90
47336;DHT22;33068;51.990;5.926;2024-02-21T02:33:55;9.00;99.90
47336;DHT22;33068;51.990;5.926;2024-02-21T02:36:35;9.10;99.90
47336;DHT22;33068;51.990;5.926;2024-02-21T02:39:36;8.90;99.90
47336;DHT22;33068;51.990;5.926;2024-02-21T02:42:18;9.30;99.90
47336;DHT22;33068;51.990;5.926;2024-02-21T02:44:54;9.00;99.90
47336;DHT22;33068;51.990;5.926;2024-02-21T02:48:25;9.10;99.90
47336;DHT22;33068;51.990;5.926;2024-02-21T02:50:59;9.10;99.90
47336;DHT22;33068;51.990;5.926;2024-02-21T02:53:39;9.10;99.90
47336;DHT22;33068;51.990;5.926;2024-02-21T02:56:32;9.10;99.90
47336;DHT22;33068;51.990;5.926;2024-02-21T02:59:15;9.00;99.90
47336;DHT22;33068;51.990;5.926;2024-02-21T03:01:49;9.00;99.90
47336;DHT22;33068;51.990;5.926;2024-02-21T03:04:30;9.00;99.90
47336;DHT22;33068;51.990;5.926;2024-02-21T03:07:06;9.00;99.90
47336;DHT22;33068;51.990;5.926;2024-02-21T03:09:39;8.90;99.90
47336;DHT22;33068;51.990;5.926;2024-02-21T03:12:49;8.80;99.90
47336;DHT22;33068;51.990;5.926;2024-02-21T03:15:24;9.00;99.90
47336;DHT22;33068;51.990;5.926;2024-02-21T03:18:07;9.10;99.90
47336;DHT22;33068;51.990;5.926;2024-02-21T03:20:40;9.00;99.90
47336;DHT22;33068;51.990;5.926;2024-02-21T03:23:10;8.80;99.90
47336;DHT22;33068;51.990;5.926;2024-02-21T03:25:41;8.90;99.90
47336;DHT22;33068;51.990;5.926;2024-02-21T03:28:10;9.00;99.90
47336;DHT22;33068;51.990;5.926;2024-02-21T03:30:42;9.00;99.90
47336;DHT22;33068;51.990;5.926;2024-02-21T03:33:52;9.00;99.90
47336;DHT22;33068;51.990;5.926;2024-02-21T03:36:42;8.90;99.90
47336;DHT22;33068;51.990;5.926;2024-02-21T03:39:13;9.00;99.90
47336;DHT22;33068;51.990;5.926;2024-02-21T03:41:51;9.00;99.90
47336;DHT22;33068;51.990;5.926;2024-02-21T03:44:28;9.00;99.90
47336;DHT22;33068;51.990;5.926;2024-02-21T03:47:21;8.80;99.90
47336;DHT22;33068;51.990;5.926;2024-02-21T03:50:00;8.90;99.90
47336;DHT22;33068;51.990;5.926;2024-02-21T03:52:38;8.90;99.90
47336;DHT22;33068;51.990;5.926;2024-02-21T03:55:14;8.80;99.90
47336;DHT22;33068;51.990;5.926;2024-02-21T03:57:41;8.90;99.90
47336;DHT22;33068;51.990;5.926;2024-02-21T04:00:17;8.80;99.90
47336;DHT22;33068;51.990;5.926;2024-02-21T04:03:12;9.00;99.90
47336;DHT22;33068;51.990;5.926;2024-02-21T04:05:45;8.80;99.90
47336;DHT22;33068;51.990;5.926;2024-02-21T04:08:17;8.90;99.90
47336;DHT22;33068;51.990;5.926;2024-02-21T04:11:06;8.90;99.90
47336;DHT22;33068;51.990;5.926;2024-02-21T04:13:48;8.90;99.90
47336;DHT22;33068;51.990;5.926;2024-02-21T04:16:41;8.90;99.90
47336;DHT22;33068;51.990;5.926;2024-02-21T04:19:19;9.10;99.90
47336;DHT22;33068;51.990;5.926;2024-02-21T04:22:18;8.90;99.90
47336;DHT22;33068;51.990;5.926;2024-02-21T04:28:00;8.70;99.90
47336;DHT22;33068;51.990;5.926;2024-02-21T04:30:38;8.90;99.90
47336;DHT22;33068;51.990;5.926;2024-02-21T04:33:23;8.90;99.90
47336;DHT22;33068;51.990;5.926;2024-02-21T04:36:18;8.90;99.90
47336;DHT22;33068;51.990;5.926;2024-02-21T04:41:50;8.90;99.90
47336;DHT22;33068;51.990;5.926;2024-02-21T04:44:45;8.90;99.90
47336;DHT22;33068;51.990;5.926;2024-02-21T04:47:26;8.90;99.90
47336;DHT22;33068;51.990;5.926;2024-02-21T04:50:15;8.90;99.90
47336;DHT22;33068;51.990;5.926;2024-02-21T04:52:53;8.90;99.90
47336;DHT22;33068;51.990;5.926;2024-02-21T04:55:47;8.90;99.90
47336;DHT22;33068;51.990;5.926;2024-02-21T04:58:26;8.90;99.90
47336;DHT22;33068;51.990;5.926;2024-02-21T05:01:01;8.90;99.90
47336;DHT22;33068;51.990;5.926;2024-02-21T05:03:41;8.90;99.90
47336;DHT22;33068;51.990;5.926;2024-02-21T05:06:19;8.90;99.90
47336;DHT22;33068;51.990;5.926;2024-02-21T05:08:59;8.90;99.90
47336;DHT22;33068;51.990;5.926;2024-02-21T05:11:46;9.10;99.90
47336;DHT22;33068;51.990;5.926;2024-02-21T05:14:14;9.00;99.90
47336;DHT22;33068;51.990;5.926;2024-02-21T05:16:41;8.90;99.90
47336;DHT22;33068;51.990;5.926;2024-02-21T05:19:11;8.90;99.90
47336;DHT22;33068;51.990;5.926;2024-02-21T05:22:05;8.90;99.90
47336;DHT22;33068;51.990;5.926;2024-02-21T05:24:32;8.90;99.90
47336;DHT22;33068;51.990;5.926;2024-02-21T05:27:19;9.00;99.90
47336;DHT22;33068;51.990;5.926;2024-02-21T05:29:50;8.90;99.90
47336;DHT22;33068;51.990;5.926;2024-02-21T05:32:20;8.90;99.90
47336;DHT22;33068;51.990;5.926;2024-02-21T05:34:48;8.90;99.90
47336;DHT22;33068;51.990;5.926;2024-02-21T05:37:21;9.00;99.90
47336;DHT22;33068;51.990;5.926;2024-02-21T05:39:50;8.90;99.90
47336;DHT22;33068;51.990;5.926;2024-02-21T05:42:22;8.90;99.90
47336;DHT22;33068;51.990;5.926;2024-02-21T05:44:50;8.90;99.90
47336;DHT22;33068;51.990;5.926;2024-02-21T05:47:17;8.90;99.90
47336;DHT22;33068;51.990;5.926;2024-02-21T05:49:49;8.90;99.90
47336;DHT22;33068;51.990;5.926;2024-02-21T05:52:37;8.90;99.90
47336;DHT22;33068;51.990;5.926;2024-02-21T05:56:09;8.90;99.90
47336;DHT22;33068;51.990;5.926;2024-02-21T05:58:52;8.90;99.90
47336;DHT22;33068;51.990;5.926;2024-02-21T06:01:22;8.90;99.90
47336;DHT22;33068;51.990;5.926;2024-02-21T06:03:52;8.90;99.90
47336;DHT22;33068;51.990;5.926;2024-02-21T06:06:20;8.90;99.90
47336;DHT22;33068;51.990;5.926;2024-02-21T06:08:52;8.90;99.90
47336;DHT22;33068;51.990;5.926;2024-02-21T06:11:27;9.00;99.90
47336;DHT22;33068;51.990;5.926;2024-02-21T06:14:03;8.90;99.90
47336;DHT22;33068;51.990;5.926;2024-02-21T06:16:38;9.00;99.90
47336;DHT22;33068;51.990;5.926;2024-02-21T06:19:14;9.10;99.90
47336;DHT22;33068;51.990;5.926;2024-02-21T06:21:44;9.00;99.90
47336;DHT22;33068;51.990;5.926;2024-02-21T06:24:15;9.00;99.90
47336;DHT22;33068;51.990;5.926;2024-02-21T06:26:44;9.10;99.90
47336;DHT22;33068;51.990;5.926;2024-02-21T06:29:11;8.90;99.90
47336;DHT22;33068;51.990;5.926;2024-02-21T06:31:43;9.00;99.90
47336;DHT22;33068;51.990;5.926;2024-02-21T06:34:10;9.00;99.90
47336;DHT22;33068;51.990;5.926;2024-02-21T06:36:38;8.90;99.90
47336;DHT22;33068;51.990;5.926;2024-02-21T06:39:11;9.00;99.90
47336;DHT22;33068;51.990;5.926;2024-02-21T06:41:41;9.00;99.90
47336;DHT22;33068;51.990;5.926;2024-02-21T06:44:08;9.00;99.90
47336;DHT22;33068;51.990;5.926;2024-02-21T06:46:38;9.00;99.90
47336;DHT22;33068;51.990;5.926;2024-02-21T06:49:08;9.00;99.90
47336;DHT22;33068;51.990;5.926;2024-02-21T06:51:43;9.00;99.90
47336;DHT22;33068;51.990;5.926;2024-02-21T06:54:28;9.00;99.90
47336;DHT22;33068;51.990;5.926;2024-02-21T06:59:55;9.00;99.90
47336;DHT22;33068;51.990;5.926;2024-02-21T07:02:24;8.80;99.90
47336;DHT22;33068;51.990;5.926;2024-02-21T07:04:53;9.00;99.90
47336;DHT22;33068;51.990;5.926;2024-02-21T07:07:31;8.90;99.90
47336;DHT22;33068;51.990;5.926;2024-02-21T07:10:01;9.00;99.90
47336;DHT22;33068;51.990;5.926;2024-02-21T07:12:32;9.00;99.90
47336;DHT22;33068;51.990;5.926;2024-02-21T07:14:59;9.00;99.90
47336;DHT22;33068;51.990;5.926;2024-02-21T07:17:42;9.10;99.90
47336;DHT22;33068;51.990;5.926;2024-02-21T07:20:25;9.10;99.90
47336;DHT22;33068;51.990;5.926;2024-02-21T07:23:06;9.30;99.90
47336;DHT22;33068;51.990;5.926;2024-02-21T07:25:37;9.00;99.90
47336;DHT22;33068;51.990;5.926;2024-02-21T07:28:09;9.00;99.90
47336;DHT22;33068;51.990;5.926;2024-02-21T07:30:39;9.00;99.90
47336;DHT22;33068;51.990;5.926;2024-02-21T07:33:20;9.00;99.90
47336;DHT22;33068;51.990;5.926;2024-02-21T07:35:58;9.00;99.90
47336;DHT22;33068;51.990;5.926;2024-02-21T07:38:34;9.10;99.90
47336;DHT22;33068;51.990;5.926;2024-02-21T07:41:04;9.10;99.90
47336;DHT22;33068;51.990;5.926;2024-02-21T07:46:40;9.10;99.90
47336;DHT22;33068;51.990;5.926;2024-02-21T07:49:13;9.10;99.90
47336;DHT22;33068;51.990;5.926;2024-02-21T07:52:02;9.10;99.90
47336;DHT22;33068;51.990;5.926;2024-02-21T07:54:32;9.10;99.90
47336;DHT22;33068;51.990;5.926;2024-02-21T07:57:05;9.10;99.90
47336;DHT22;33068;51.990;5.926;2024-02-21T07:59:40;9.10;99.90
47336;DHT22;33068;51.990;5.926;2024-02-21T08:02:13;8.90;99.90
47336;DHT22;33068;51.990;5.926;2024-02-21T08:04:42;9.10;99.90
47336;DHT22;33068;51.990;5.926;2024-02-21T08:07:13;9.10;99.90
47336;DHT22;33068;51.990;5.926;2024-02-21T08:09:45;9.20;99.90
47336;DHT22;33068;51.990;5.926;2024-02-21T08:12:27;9.20;99.90
47336;DHT22;33068;51.990;5.926;2024-02-21T08:14:55;9.20;99.90
47336;DHT22;33068;51.990;5.926;2024-02-21T08:17:23;9.20;99.90
47336;DHT22;33068;51.990;5.926;2024-02-21T08:19:50;9.30;99.90
47336;DHT22;33068;51.990;5.926;2024-02-21T08:22:18;9.30;99.90
47336;DHT22;33068;51.990;5.926;2024-02-21T08:24:45;9.30;99.90
47336;DHT22;33068;51.990;5.926;2024-02-21T08:27:26;9.30;99.90
47336;DHT22;33068;51.990;5.926;2024-02-21T08:29:55;9.40;99.90
47336;DHT22;33068;51.990;5.926;2024-02-21T08:32:25;9.40;99.90
47336;DHT22;33068;51.990;5.926;2024-02-21T08:34:55;9.60;99.90
47336;DHT22;33068;51.990;5.926;2024-02-21T08:37:30;9.50;99.90
47336;DHT22;33068;51.990;5.926;2024-02-21T08:39:59;9.50;99.90
47336;DHT22;33068;51.990;5.926;2024-02-21T08:42:42;9.50;99.90
47336;DHT22;33068;51.990;5.926;2024-02-21T08:45:21;9.50;99.90
47336;DHT22;33068;51.990;5.926;2024-02-21T08:48:17;9.50;99.90
47336;DHT22;33068;51.990;5.926;2024-02-21T08:50:51;9.50;99.90
47336;DHT22;33068;51.990;5.926;2024-02-21T08:53:24;9.50;99.90
47336;DHT22;33068;51.990;5.926;2024-02-21T08:55:51;9.50;99.90
47336;DHT22;33068;51.990;5.926;2024-02-21T08:58:18;9.60;99.90
47336;DHT22;33068;51.990;5.926;2024-02-21T09:00:47;9.60;99.90
47336;DHT22;33068;51.990;5.926;2024-02-21T09:03:14;9.60;99.90
47336;DHT22;33068;51.990;5.926;2024-02-21T09:05:41;9.60;99.90
47336;DHT22;33068;51.990;5.926;2024-02-21T09:08:08;9.60;99.90
47336;DHT22;33068;51.990;5.926;2024-02-21T09:10:35;9.60;99.90
47336;DHT22;33068;51.990;5.926;2024-02-21T09:13:03;9.70;99.90
47336;DHT22;33068;51.990;5.926;2024-02-21T09:15:31;9.60;99.90
47336;DHT22;33068;51.990;5.926;2024-02-21T09:17:59;9.60;99.90
47336;DHT22;33068;51.990;5.926;2024-02-21T09:20:27;9.60;99.90
47336;DHT22;33068;51.990;5.926;2024-02-21T09:22:54;9.60;99.90
47336;DHT22;33068;51.990;5.926;2024-02-21T09:25:22;9.70;99.90
47336;DHT22;33068;51.990;5.926;2024-02-21T09:27:49;9.70;99.90
47336;DHT22;33068;51.990;5.926;2024-02-21T09:30:18;9.70;99.90
47336;DHT22;33068;51.990;5.926;2024-02-21T09:32:46;9.70;99.90
47336;DHT22;33068;51.990;5.926;2024-02-21T09:35:15;9.80;99.90
47336;DHT22;33068;51.990;5.926;2024-02-21T09:37:42;9.80;99.90
47336;DHT22;33068;51.990;5.926;2024-02-21T09:40:10;9.80;99.90
47336;DHT22;33068;51.990;5.926;2024-02-21T09:42:38;9.80;99.90
47336;DHT22;33068;51.990;5.926;2024-02-21T09:45:08;9.80;99.90
47336;DHT22;33068;51.990;5.926;2024-02-21T09:47:46;9.90;99.90
47336;DHT22;33068;51.990;5.926;2024-02-21T09:50:18;9.90;99.90
47336;DHT22;33068;51.990;5.926;2024-02-21T09:52:48;9.90;99.90
47336;DHT22;33068;51.990;5.926;2024-02-21T09:55:16;9.90;99.90
47336;DHT22;33068;51.990;5.926;2024-02-21T09:57:44;9.90;99.90
47336;DHT22;33068;51.990;5.926;2024-02-21T10:00:13;10.00;99.90
47336;DHT22;33068;51.990;5.926;2024-02-21T10:02:47;10.00;99.90
47336;DHT22;33068;51.990;5.926;2024-02-21T10:05:15;10.00;99.90
47336;DHT22;33068;51.990;5.926;2024-02-21T10:07:44;10.10;99.90
47336;DHT22;33068;51.990;5.926;2024-02-21T10:10:11;10.10;99.90
47336;DHT22;33068;51.990;5.926;2024-02-21T10:12:48;10.10;99.90
47336;DHT22;33068;51.990;5.926;2024-02-21T10:15:20;10.10;99.90
47336;DHT22;33068;51.990;5.926;2024-02-21T10:17:48;10.10;99.90
47336;DHT22;33068;51.990;5.926;2024-02-21T10:20:16;10.10;99.90
47336;DHT22;33068;51.990;5.926;2024-02-21T10:22:44;10.20;99.90
47336;DHT22;33068;51.990;5.926;2024-02-21T10:25:12;10.30;99.90
47336;DHT22;33068;51.990;5.926;2024-02-21T10:27:40;10.20;99.90
47336;DHT22;33068;51.990;5.926;2024-02-21T10:30:12;10.20;99.90
47336;DHT22;33068;51.990;5.926;2024-02-21T10:32:49;10.10;99.90
47336;DHT22;33068;51.990;5.926;2024-02-21T10:35:25;10.00;99.90
47336;DHT22;33068;51.990;5.926;2024-02-21T10:37:54;10.00;99.90
47336;DHT22;33068;51.990;5.926;2024-02-21T10:40:23;10.00;99.90
47336;DHT22;33068;51.990;5.926;2024-02-21T10:42:56;10.00;99.90
47336;DHT22;33068;51.990;5.926;2024-02-21T10:45:29;9.90;99.90
47336;DHT22;33068;51.990;5.926;2024-02-21T10:48:06;9.80;99.90
47336;DHT22;33068;51.990;5.926;2024-02-21T10:50:44;9.90;99.90
47336;DHT22;33068;51.990;5.926;2024-02-21T10:53:27;9.70;99.90
47336;DHT22;33068;51.990;5.926;2024-02-21T10:56:01;9.70;99.90
47336;DHT22;33068;51.990;5.926;2024-02-21T10:58:29;9.70;99.90
47336;DHT22;33068;51.990;5.926;2024-02-21T11:00:57;9.70;99.90
47336;DHT22;33068;51.990;5.926;2024-02-21T11:03:24;9.70;99.90
47336;DHT22;33068;51.990;5.926;2024-02-21T11:05:52;9.70;99.90
47336;DHT22;33068;51.990;5.926;2024-02-21T11:08:21;9.80;99.90
47336;DHT22;33068;51.990;5.926;2024-02-21T11:10:50;9.70;99.90
47336;DHT22;33068;51.990;5.926;2024-02-21T11:13:17;9.80;99.90
47336;DHT22;33068;51.990;5.926;2024-02-21T11:15:44;9.70;99.90
47336;DHT22;33068;51.990;5.926;2024-02-21T11:18:23;9.70;99.90
47336;DHT22;33068;51.990;5.926;2024-02-21T11:20:50;9.80;99.90
47336;DHT22;33068;51.990;5.926;2024-02-21T11:23:25;9.70;99.90
47336;DHT22;33068;51.990;5.926;2024-02-21T11:25:52;9.80;99.90
47336;DHT22;33068;51.990;5.926;2024-02-21T11:28:30;9.80;99.90
47336;DHT22;33068;51.990;5.926;2024-02-21T11:31:06;9.80;99.90
47336;DHT22;33068;51.990;5.926;2024-02-21T11:33:34;9.80;99.90
47336;DHT22;33068;51.990;5.926;2024-02-21T11:36:01;9.80;99.90
47336;DHT22;33068;51.990;5.926;2024-02-21T11:38:31;9.80;99.90
47336;DHT22;33068;51.990;5.926;2024-02-21T11:40:58;9.90;99.90
47336;DHT22;33068;51.990;5.926;2024-02-21T11:43:25;9.80;99.90
47336;DHT22;33068;51.990;5.926;2024-02-21T11:46:00;9.80;99.90
47336;DHT22;33068;51.990;5.926;2024-02-21T11:48:29;9.80;99.90
47336;DHT22;33068;51.990;5.926;2024-02-21T11:50:57;9.80;99.90
47336;DHT22;33068;51.990;5.926;2024-02-21T11:53:24;9.80;99.90
47336;DHT22;33068;51.990;5.926;2024-02-21T11:55:57;9.80;99.90
47336;DHT22;33068;51.990;5.926;2024-02-21T11:58:24;9.80;99.90
47336;DHT22;33068;51.990;5.926;2024-02-21T12:00:52;9.80;99.90
47336;DHT22;33068;51.990;5.926;2024-02-21T12:03:19;9.70;99.90
47336;DHT22;33068;51.990;5.926;2024-02-21T12:05:47;9.80;99.90
47336;DHT22;33068;51.990;5.926;2024-02-21T12:08:14;9.80;99.90
47336;DHT22;33068;51.990;5.926;2024-02-21T12:10:42;9.80;99.90
47336;DHT22;33068;51.990;5.926;2024-02-21T12:13:11;9.80;99.90
47336;DHT22;33068;51.990;5.926;2024-02-21T12:15:39;9.80;99.90
47336;DHT22;33068;51.990;5.926;2024-02-21T12:18:11;9.90;99.90
47336;DHT22;33068;51.990;5.926;2024-02-21T12:20:38;10.00;99.90
47336;DHT22;33068;51.990;5.926;2024-02-21T12:23:09;10.10;99.90
47336;DHT22;33068;51.990;5.926;2024-02-21T12:25:37;10.20;99.90
47336;DHT22;33068;51.990;5.926;2024-02-21T12:28:08;10.20;99.90
47336;DHT22;33068;51.990;5.926;2024-02-21T12:30:37;10.40;99.90
47336;DHT22;33068;51.990;5.926;2024-02-21T12:33:06;10.50;99.90
47336;DHT22;33068;51.990;5.926;2024-02-21T12:35:33;10.60;99.90
47336;DHT22;33068;51.990;5.926;2024-02-21T12:38:00;10.70;99.90
47336;DHT22;33068;51.990;5.926;2024-02-21T12:40:27;10.70;99.90
47336;DHT22;33068;51.990;5.926;2024-02-21T12:42:58;10.80;99.90
47336;DHT22;33068;51.990;5.926;2024-02-21T12:45:26;10.80;99.90
47336;DHT22;33068;51.990;5.926;2024-02-21T12:47:54;10.80;99.90
47336;DHT22;33068;51.990;5.926;2024-02-21T12:50:21;10.70;99.90
47336;DHT22;33068;51.990;5.926;2024-02-21T12:52:49;10.80;99.90
47336;DHT22;33068;51.990;5.926;2024-02-21T12:55:16;10.80;99.90
47336;DHT22;33068;51.990;5.926;2024-02-21T12:57:43;10.80;99.90
47336;DHT22;33068;51.990;5.926;2024-02-21T13:00:12;10.80;99.90
47336;DHT22;33068;51.990;5.926;2024-02-21T13:02:39;10.80;99.90
47336;DHT22;33068;51.990;5.926;2024-02-21T13:05:08;10.90;99.90
47336;DHT22;33068;51.990;5.926;2024-02-21T13:07:35;10.90;99.90
47336;DHT22;33068;51.990;5.926;2024-02-21T13:10:03;10.90;99.90
47336;DHT22;33068;51.990;5.926;2024-02-21T13:12:31;10.90;99.90
47336;DHT22;33068;51.990;5.926;2024-02-21T13:14:58;10.90;99.90
47336;DHT22;33068;51.990;5.926;2024-02-21T13:17:25;10.90;99.90
47336;DHT22;33068;51.990;5.926;2024-02-21T13:19:56;10.80;99.90
47336;DHT22;33068;51.990;5.926;2024-02-21T13:22:24;10.80;99.90
47336;DHT22;33068;51.990;5.926;2024-02-21T13:24:52;10.80;99.90
47336;DHT22;33068;51.990;5.926;2024-02-21T13:27:19;10.80;99.90
47336;DHT22;33068;51.990;5.926;2024-02-21T13:29:46;10.80;99.90
47336;DHT22;33068;51.990;5.926;2024-02-21T13:32:14;10.80;99.90
47336;DHT22;33068;51.990;5.926;2024-02-21T13:34:41;10.90;99.90
47336;DHT22;33068;51.990;5.926;2024-02-21T13:37:08;11.00;99.90
47336;DHT22;33068;51.990;5.926;2024-02-21T13:39:37;11.00;99.90
47336;DHT22;33068;51.990;5.926;2024-02-21T13:42:05;11.00;99.90
47336;DHT22;33068;51.990;5.926;2024-02-21T13:44:32;11.00;99.90
47336;DHT22;33068;51.990;5.926;2024-02-21T13:47:00;11.10;99.90
47336;DHT22;33068;51.990;5.926;2024-02-21T13:49:27;11.10;99.90
47336;DHT22;33068;51.990;5.926;2024-02-21T13:51:56;11.10;99.90
47336;DHT22;33068;51.990;5.926;2024-02-21T13:54:23;11.10;99.90
47336;DHT22;33068;51.990;5.926;2024-02-21T13:56:51;11.10;99.90
47336;DHT22;33068;51.990;5.926;2024-02-21T13:59:18;11.10;99.90
47336;DHT22;33068;51.990;5.926;2024-02-21T14:01:45;11.10;99.90
47336;DHT22;33068;51.990;5.926;2024-02-21T14:04:12;11.10;99.90
47336;DHT22;33068;51.990;5.926;2024-02-21T14:06:40;11.10;99.90
47336;DHT22;33068;51.990;5.926;2024-02-21T14:09:09;11.10;99.90
47336;DHT22;33068;51.990;5.926;2024-02-21T14:11:36;11.10;99.90
47336;DHT22;33068;51.990;5.926;2024-02-21T14:14:07;11.10;99.90
47336;DHT22;33068;51.990;5.926;2024-02-21T14:16:34;11.10;99.90
47336;DHT22;33068;51.990;5.926;2024-02-21T14:19:01;11.10;99.90
47336;DHT22;33068;51.990;5.926;2024-02-21T14:21:28;11.10;99.90
47336;DHT22;33068;51.990;5.926;2024-02-21T14:23:55;11.10;99.90
47336;DHT22;33068;51.990;5.926;2024-02-21T14:26:23;11.10;99.90
47336;DHT22;33068;51.990;5.926;2024-02-21T14:28:50;11.10;99.90
47336;DHT22;33068;51.990;5.926;2024-02-21T14:31:19;11.10;99.90
47336;DHT22;33068;51.990;5.926;2024-02-21T14:33:46;11.10;99.90
47336;DHT22;33068;51.990;5.926;2024-02-21T14:36:13;11.00;99.90
47336;DHT22;33068;51.990;5.926;2024-02-21T14:38:41;11.10;99.90
47336;DHT22;33068;51.990;5.926;2024-02-21T14:41:08;11.10;99.90
47336;DHT22;33068;51.990;5.926;2024-02-21T14:43:37;11.00;99.90
47336;DHT22;33068;51.990;5.926;2024-02-21T14:46:04;11.00;99.90
47336;DHT22;33068;51.990;5.926;2024-02-21T14:48:33;11.00;99.90
47336;DHT22;33068;51.990;5.926;2024-02-21T14:51:00;11.00;99.90
47336;DHT22;33068;51.990;5.926;2024-02-21T14:53:27;11.00;99.90
47336;DHT22;33068;51.990;5.926;2024-02-21T14:55:55;11.00;99.90
47336;DHT22;33068;51.990;5.926;2024-02-21T14:58:23;11.00;99.90
47336;DHT22;33068;51.990;5.926;2024-02-21T15:00:50;10.90;99.90
47336;DHT22;33068;51.990;5.926;2024-02-21T15:03:17;10.90;99.90
47336;DHT22;33068;51.990;5.926;2024-02-21T15:05:47;10.90;99.90
47336;DHT22;33068;51.990;5.926;2024-02-21T15:08:15;10.90;99.90
47336;DHT22;33068;51.990;5.926;2024-02-21T15:10:45;10.80;99.90
47336;DHT22;33068;51.990;5.926;2024-02-21T15:13:12;10.80;99.90
47336;DHT22;33068;51.990;5.926;2024-02-21T15:15:40;10.80;99.90
47336;DHT22;33068;51.990;5.926;2024-02-21T15:18:08;10.70;99.90
47336;DHT22;33068;51.990;5.926;2024-02-21T15:20:35;10.70;99.90
47336;DHT22;33068;51.990;5.926;2024-02-21T15:23:04;10.60;99.90
47336;DHT22;33068;51.990;5.926;2024-02-21T15:25:31;10.60;99.90
47336;DHT22;33068;51.990;5.926;2024-02-21T15:27:59;10.60;99.90
47336;DHT22;33068;51.990;5.926;2024-02-21T15:30:28;10.50;99.90
47336;DHT22;33068;51.990;5.926;2024-02-21T15:32:57;10.40;99.90
47336;DHT22;33068;51.990;5.926;2024-02-21T15:35:27;10.40;99.90
47336;DHT22;33068;51.990;5.926;2024-02-21T15:37:54;10.30;99.90
47336;DHT22;33068;51.990;5.926;2024-02-21T15:40:23;10.20;99.90
47336;DHT22;33068;51.990;5.926;2024-02-21T15:42:51;10.20;99.90
47336;DHT22;33068;51.990;5.926;2024-02-21T15:45:18;10.10;99.90
47336;DHT22;33068;51.990;5.926;2024-02-21T15:47:45;10.00;99.90
47336;DHT22;33068;51.990;5.926;2024-02-21T15:50:12;10.00;99.90
47336;DHT22;33068;51.990;5.926;2024-02-21T15:52:39;9.90;99.90
47336;DHT22;33068;51.990;5.926;2024-02-21T15:55:06;9.80;99.90
47336;DHT22;33068;51.990;5.926;2024-02-21T15:57:38;9.80;99.90
47336;DHT22;33068;51.990;5.926;2024-02-21T16:00:06;9.80;99.90
47336;DHT22;33068;51.990;5.926;2024-02-21T16:02:38;9.70;99.90
47336;DHT22;33068;51.990;5.926;2024-02-21T16:05:07;9.60;99.90
47336;DHT22;33068;51.990;5.926;2024-02-21T16:07:36;9.60;99.90
47336;DHT22;33068;51.990;5.926;2024-02-21T16:10:03;9.50;99.90
47336;DHT22;33068;51.990;5.926;2024-02-21T16:12:31;9.60;99.90
47336;DHT22;33068;51.990;5.926;2024-02-21T16:15:00;9.50;99.90
47336;DHT22;33068;51.990;5.926;2024-02-21T16:17:27;9.40;99.90
47336;DHT22;33068;51.990;5.926;2024-02-21T16:19:54;9.40;99.90
47336;DHT22;33068;51.990;5.926;2024-02-21T16:22:21;9.40;99.90
47336;DHT22;33068;51.990;5.926;2024-02-21T16:24:48;9.40;99.90
47336;DHT22;33068;51.990;5.926;2024-02-21T16:27:16;9.30;99.90
47336;DHT22;33068;51.990;5.926;2024-02-21T16:29:43;9.40;99.90
47336;DHT22;33068;51.990;5.926;2024-02-21T16:32:11;9.30;99.90
47336;DHT22;33068;51.990;5.926;2024-02-21T16:34:38;9.30;99.90
47336;DHT22;33068;51.990;5.926;2024-02-21T16:37:06;9.20;99.90
47336;DHT22;33068;51.990;5.926;2024-02-21T16:39:34;9.10;99.90
47336;DHT22;33068;51.990;5.926;2024-02-21T16:42:02;9.10;99.90
47336;DHT22;33068;51.990;5.926;2024-02-21T16:44:29;9.10;99.90
47336;DHT22;33068;51.990;5.926;2024-02-21T16:46:59;9.10;99.90
47336;DHT22;33068;51.990;5.926;2024-02-21T16:49:27;9.10;99.90
47336;DHT22;33068;51.990;5.926;2024-02-21T16:51:57;9.10;99.90